Nearby METAR Reports

 

KSEE - San Diego/Santee, California, USA
Distance from station: E 4mi, 6km
Updated: Thu, 01-Jun-2023 10:55pm PDT
Overcast
Overcast
 Wind from NW
Wind: NW 5 mph , 7 km/h
Temperature: 59°F , 15°C
Dew Point: 55°F , 13°C
Humidity: 88%
Barometer: 29.96 inHg , 1014.6 hPa
Clouds: Overcast
Visibility: 10 miles , 16 km
Cloud details: Mostly cloudy 1300 ft
Overcast 2400 ft
2023/06/02 05:55 KSEE 020555Z AUTO 31004KT 10SM BKN013 OVC024 15/13 A2996 RMK AO2
KMYF - San Diego/Mntgmy, California, USA
Distance from station: W 6mi, 10km
Updated: Thu, 01-Jun-2023 10:53pm PDT
Overcast
Overcast
 Wind from NNW
Wind: NNW 5 mph , 7 km/h
Temperature: 61°F , 16°C
Dew Point: 54°F , 12°C
Humidity: 77%
Barometer: 29.97 inHg , 1014.9 hPa
Clouds: Overcast
Visibility: 10 miles , 16 km
Cloud details: Mostly cloudy 1300 ft
Overcast 2400 ft
2023/06/02 05:53 KMYF 020553Z AUTO 33004KT 10SM BKN013 OVC024 16/12 A2997 RMK AO2 SLP145 T01560122 10172 20156 58000
 
KNKX - Miramar Nas/San, California, USA
Distance from station: WNW 7mi, 11km
Updated: Thu, 01-Jun-2023 10:55pm PDT
Overcast
Overcast
 Wind from calm
Wind: Calm
Temperature: 59°F , 15°C
Dew Point: 55°F , 13°C
Humidity: 88%
Barometer: 29.96 inHg , 1014.6 hPa
Clouds: Overcast
Visibility: 10 miles , 16 km
Cloud details: Mostly cloudy 1300 ft
Overcast 2300 ft
2023/06/02 05:55 KNKX 020555Z 00000KT 10SM BKN013 OVC023 15/13 A2996 RMK AO2 SLP143 60000 T01500128 10167 20150 58000
KSAN - San Diego, California, USA
Distance from station: WSW 11mi, 17km
Updated: Thu, 01-Jun-2023 10:51pm PDT
Overcast
Overcast
 Wind from NW
Wind: NW 5 mph , 7 km/h
Temperature: 63°F , 17°C
Dew Point: 55°F , 13°C
Humidity: 77%
Barometer: 29.98 inHg , 1015.2 hPa
Clouds: Overcast
Visibility: 10 miles , 16 km
Cloud details: Mostly cloudy 2200 ft
Overcast 3300 ft
2023/06/02 05:51 KSAN 020551Z 31004KT 10SM BKN022 OVC033 17/13 A2998 RMK AO2 SLP151 T01670133 10183 20167 50000 $
 
KNZY - North Island Nas, California, USA
Distance from station: SW 13mi, 22km
Updated: Thu, 01-Jun-2023 10:52pm PDT
Mostly cloudy
Mostly cloudy
 Wind from WNW
Wind: WNW 6 mph , 9 km/h
Temperature: 63°F , 17°C
Dew Point: 57°F , 14°C
Humidity: 83%
Barometer: 29.96 inHg , 1014.6 hPa
Clouds: Mostly cloudy
Visibility: 10 miles , 16 km
Cloud details: Partly cloudy 1600 ft
Mostly cloudy 2600 ft
Mostly cloudy 3200 ft
2023/06/02 05:52 KNZY 020552Z 30005KT 10SM SCT016 BKN026 BKN032 17/14 A2996 RMK AO2 SLP144 T01670139 10178 20167 58000
KRNM - Ramona, California, USA
Distance from station: NNE 16mi, 26km
Updated: Thu, 01-Jun-2023 10:55pm PDT
Mist, Overcast
Mist, Overcast
 Wind from WNW
Wind: WNW 5 mph , 7 km/h
Temperature: 55°F , 13°C
Dew Point: 54°F , 12°C
Humidity: 94%
Barometer: 29.97 inHg , 1014.9 hPa
Summary: Mist
Clouds: Overcast
Visibility: 4 miles , 6 km
Cloud details: Partly cloudy 900 ft
Overcast 1500 ft
2023/06/02 05:55 KRNM 020555Z AUTO 30004KT 4SM BR SCT009 OVC015 13/12 A2997 RMK AO2 T01330122
 
KSDM - San Diego/Brown, California, USA
Distance from station: S 16mi, 26km
Updated: Thu, 01-Jun-2023 10:53pm PDT
Overcast
Overcast
 Wind from NW
Wind: NW 3 mph , 6 km/h
Temperature: 59°F , 15°C
Dew Point: 54°F , 12°C
Humidity: 82%
Barometer: 29.96 inHg , 1014.6 hPa
Clouds: Overcast
Visibility: 10 miles , 16 km
Cloud details: Overcast 1200 ft
2023/06/02 05:53 KSDM 020553Z AUTO 31003KT 10SM OVC012 15/12 A2996 RMK AO2 SLP144 T01500122 10167 20150 58000
KNRS - Imperial Beach, California, USA
Distance from station: SSW 18mi, 29km
Updated: Thu, 01-Jun-2023 10:53pm PDT
Overcast
Overcast
 Wind from NW
Wind: NW 6 mph , 9 km/h
Temperature: 61°F , 16°C
Dew Point: 55°F , 13°C
Humidity: 83%
Barometer: 29.97 inHg , 1014.9 hPa
Clouds: Overcast
Visibility: 10 miles , 16 km
Cloud details: Mostly cloudy 2000 ft
Overcast 3300 ft
2023/06/02 05:53 KNRS 020553Z 31005KT 10SM BKN020 OVC033 16/13 A2997 RMK AO2 SLP149 T01610128 10172 20161 58001 $
 
MMTJ - Tijuana Intl Arp, Mexico
Distance from station: S 20mi, 32km
Updated: Thu, 01-Jun-2023 10:40pm PDT
Overcast
Overcast
 Wind from WNW
Wind: WNW 6 mph , 9 km/h
Temperature: 59°F , 15°C
Dew Point: 57°F , 14°C
Humidity: 94%
Barometer: 29.99 inHg , 1015.6 hPa
Clouds: Overcast
Visibility: 8 miles , 13 km
Cloud details: Mostly cloudy 1500 ft
Overcast 3000 ft
2023/06/02 05:40 MMTJ 020540Z 30005KT 8SM BKN015 OVC030 15/14 A2999 RMK SLP154 57016 905 8/5// HZY
KCRQ - Carlsbad, California, USA
Distance from station: NW 26mi, 43km
Updated: Thu, 01-Jun-2023 10:53pm PDT
Overcast
Overcast
 Wind from calm
Wind: Calm
Temperature: 63°F , 17°C
Dew Point: 55°F , 13°C
Humidity: 77%
Barometer: 29.95 inHg , 1014.2 hPa
Clouds: Overcast
Visibility: 10 miles , 16 km
Cloud details: Overcast 1400 ft
2023/06/02 05:53 KCRQ 020553Z AUTO 00000KT 10SM OVC014 17/13 A2995 RMK AO2 SLP142 T01670128 10172 20167 58001
 
KOKB - Oceanside, California, USA
Distance from station: NW 33mi, 54km
Updated: Thu, 01-Jun-2023 10:52pm PDT
Overcast
Overcast
 Wind from calm
Wind: Calm
Temperature: 63°F , 17°C
Dew Point: 55°F , 13°C
Humidity: 77%
Barometer: 29.96 inHg , 1014.6 hPa
Clouds: Overcast
Visibility: 10 miles , 16 km
Cloud details: Overcast 2000 ft
2023/06/02 05:52 KOKB 020552Z AUTO 00000KT 10SM OVC020 17/13 A2996 RMK AO2 SLP143 T01720133 10189 20172 58000
KCZZ - Campo, California, USA
Distance from station: ESE 35mi, 56km
Updated: Mon, 26-Oct-2020 8:52am PDT
NOT Current

 Wind from NE
Wind: NE 14 mph , 22 km/h, Gust: 20 mph , 31 km/h
Temperature: 48°F , 9°C
Wind Chill: 42°F , 6°C
Dew Point: 27°F , -3°C
Humidity: 43%
Barometer: 29.99 inHg , 1015.6 hPa
2020/10/26 15:52 KCZZ 261552Z AUTO 05012G17KT 09/M03 A2999 RMK AO1 SLP140 T00891028
 
KNFG - Camp Pendleton, California, USA
Distance from station: NNW 37mi, 59km
Updated: Thu, 01-Jun-2023 10:53pm PDT
Overcast
Overcast
 Wind from calm
Wind: Calm
Temperature: 63°F , 17°C
Dew Point: 55°F , 13°C
Humidity: 77%
Barometer: 29.96 inHg , 1014.6 hPa
Clouds: Overcast
Visibility: 10 miles , 16 km
Cloud details: Few Clouds 2600 ft
Overcast 3300 ft
2023/06/02 05:53 KNFG 020553Z 00000KT 10SM FEW026 OVC033 17/13 A2996 RMK AO2 SLP145 T01720128 10194 20172 58001 $
KRIV - Riverside/March, California, USA
Distance from station: N 74mi, 119km
Updated: Thu, 01-Jun-2023 11:00pm PDT
Overcast
Overcast
 Wind from NW
Wind: NW 6 mph , 9 km/h
Temperature: 59°F , 15°C
Dew Point: 52°F , 11°C
Humidity: 77%
Barometer: 29.96 inHg , 1014.6 hPa
Clouds: Overcast
Visibility: 10 miles , 16 km
Cloud details: Overcast 2900 ft
2023/06/02 06:00 KRIV 020600Z AUTO 31005KT 10SM OVC029 15/11 A2996 RMK AO2 CIG 028 RWY14 SLP140
 
KTRM - Thermal/Palm Spg, California, USA
Distance from station: NE 75mi, 121km
Updated: Thu, 01-Jun-2023 10:52pm PDT
Clear
Clear
 Wind from NW
Wind: NW 10 mph , 17 km/h
Temperature: 72°F , 22°C
Dew Point: 52°F , 11°C
Humidity: 50%
Barometer: 29.76 inHg , 1007.8 hPa
Clouds: Clear
Visibility: 9 miles , 14 km
2023/06/02 05:52 KTRM 020552Z AUTO 31009KT 9SM CLR 22/11 A2976 RMK AO2 SLP080 T02220111 10322 20222 51009 $
KPSP - Palm Springs, California, USA
Distance from station: NNE 76mi, 122km
Updated: Thu, 01-Jun-2023 10:53pm PDT
Clear
Clear
 Wind from NW
Wind: NW 8 mph , 13 km/h
Temperature: 73°F , 23°C
Dew Point: 52°F , 11°C
Humidity: 47%
Barometer: 29.81 inHg , 1009.5 hPa
Clouds: Clear
Visibility: 10 miles , 16 km
2023/06/02 05:53 KPSP 020553Z AUTO 31007KT 10SM CLR 23/11 A2981 RMK AO2 SLP091 T02280106 10306 20228 51012
 
KSNA - Costa Mesa, California, USA
Distance from station: NW 76mi, 123km
Updated: Thu, 01-Jun-2023 10:50pm PDT
Mostly cloudy
Mostly cloudy
 Wind from W
Wind: W 3 mph , 6 km/h
Temperature: 63°F , 17°C
Dew Point: 55°F , 13°C
Humidity: 77%
Barometer: 29.96 inHg , 1014.6 hPa
Clouds: Mostly cloudy
Visibility: 10 miles , 16 km
Cloud details: Few Clouds 2500 ft
Mostly cloudy 4300 ft
2023/06/02 05:50 KSNA 020550Z 26003KT 10SM FEW025 BKN043 17/13 A2996 RMK AO2 LAST
KNJK - El Centro Naf, California, USA
Distance from station: E 79mi, 127km
Updated: Thu, 01-Jun-2023 10:56pm PDT
Clear
Clear
 Wind from W
Wind: W 10 mph , 17 km/h
Temperature: 73°F , 23°C
Dew Point: 48°F , 9°C
Humidity: 41%
Barometer: 29.79 inHg , 1008.8 hPa
Clouds: Clear
Visibility: 10 miles , 16 km
2023/06/02 05:56 KNJK 020556Z 26009KT 10SM CLR 23/09 A2979 RMK AO2 SLP104 T02280089 10339 20228 $
 
KAJO - Corona Muni, California, USA
Distance from station: NNW 82mi, 132km
Updated: Thu, 01-Jun-2023 10:56pm PDT
Overcast
Overcast
 Wind from W
Wind: W 6 mph , 9 km/h
Temperature: 61°F , 16°C
Dew Point: 54°F , 12°C
Humidity: 77%
Barometer: 29.97 inHg , 1014.9 hPa
Clouds: Overcast
Visibility: 10 miles , 16 km
Cloud details: Overcast 3900 ft
2023/06/02 05:56 KAJO 020556Z AUTO 27005KT 10SM OVC039 16/12 A2997 RMK AO2 SLP143 T01610122 10194 20161 50002